Hauptseite
METAR-TAF:

METAR-TAF

Flughäfen :

Gran Canaria, Spanien

Flughafen Gran Canaria

Breite: 27-56N, Länge: 015-23W, Höhe: 23 m

Beobachtung

Neuester Wetterbericht von vor 21 Minuten, um 15:30 UTC
Wind 23 kt aus Nord/Nordost
Temperatur 28°C
Luftfeuchtigkeit 51%
Luftdruck 1016 hPa
Sichtweite 10 km oder mehr
keine Wolken unter 1500 m und keine Kumulonimbus oder Gewitterwolken

METAR: GCLP 271530Z 02023KT CAVOK 28/17 Q1016 NOSIG

Zeit: 16:51 (15:51 UTC)

Prognose

Neuester Wetterbericht von vor 1 Stunde und 51 Minuten, um 14:00 UTC
Gültige Prognose vom 27 um 15 UTC bis 28 um 15 UTC
Wind 22 kt aus Nord
Sichtweite 10 km oder mehr
keine Wolken unter 1500 m und keine Kumulonimbus oder Gewitterwolken
Wahrscheinlichkeit 30% :
Zeitweise
vom 27 um 15 UTC bis 27 um 21 UTC
Wind 23 kt aus Nord/Nordost, Böen bis zu 33 kt

TAF: GCLP 271400Z 2715/2815 01022KT CAVOK TX28/2814Z TN22/2805Z PROB30 TEMPO 2715/2721 02023G33KT

Wetterbeobachtungen und Prognosen von mehr als 4000 Flughäfen (METAR und TAF Bericht).

Die verfügbaren Stationen werden durch gelbe und rote Markierungen auf der Karte dargestellt.

Führen Sie die Maus auf sie, um den Namen der Station zu sehen.

Darauf klicken, um die Beobachtung von Wetterbeobachtungen und Prognosen zu sehen.

Um die Karte zu ändern : klicken Sie auf den grünen Tasten mit einem schwarzen Kreuz Zum Vergrößern, auf den grünen Button mit einem Gedankenstrich zu verkleinern, oder auf die grünen Pfeile für benachbarte Karten.


METAR-TAF: